createdAt,value
2023-04-04T00:00:44.062Z,99009.63
2023-04-04T00:03:10.465Z,99007.72
2023-04-04T00:05:39.141Z,99005.81
2023-04-04T00:08:05.635Z,99014.13
2023-04-04T00:10:31.978Z,99013.03
2023-04-04T00:13:00.041Z,99008.31
2023-04-04T00:15:26.394Z,99011.69
2023-04-04T00:17:52.896Z,99013.88
2023-04-04T00:20:19.238Z,99015.25
2023-04-04T00:22:45.581Z,99010.50
2023-04-04T00:25:11.861Z,99019.81
2023-04-04T00:27:38.111Z,99018.56
2023-04-04T00:30:04.425Z,99011.97
2023-04-04T00:32:30.776Z,99009.88
2023-04-04T00:34:57.194Z,99013.91
2023-04-04T00:37:23.540Z,99009.09
2023-04-04T00:39:52.074Z,99012.31
2023-04-04T00:42:18.350Z,99010.22
2023-04-04T00:44:44.742Z,99011.56
2023-04-04T00:47:11.223Z,99012.94
2023-04-04T00:49:37.585Z,99014.28
2023-04-04T00:52:04.017Z,99007.91
2023-04-04T00:54:30.384Z,99006.63
2023-04-04T00:56:56.777Z,99007.97
2023-04-04T00:59:24.316Z,99008.53
2023-04-04T01:01:50.610Z,99008.91
2023-04-04T01:04:17.097Z,99019.16
2023-04-04T01:06:43.480Z,99013.41
2023-04-04T01:09:11.417Z,99016.41
2023-04-04T01:11:37.867Z,99012.50
2023-04-04T01:14:04.300Z,99016.31
2023-04-04T01:16:30.655Z,99013.22
2023-04-04T01:18:57.018Z,99015.38
2023-04-04T01:21:23.519Z,99008.00
2023-04-04T01:23:50.071Z,99006.69
2023-04-04T01:26:16.425Z,99012.34
2023-04-04T01:28:42.818Z,99009.22
2023-04-04T01:31:09.069Z,99006.13
2023-04-04T01:33:35.390Z,98998.72
2023-04-04T01:36:01.971Z,98998.41
2023-04-04T01:38:29.596Z,99004.06
2023-04-04T01:40:56.071Z,99001.78
2023-04-04T01:43:22.440Z,99002.13
2023-04-04T01:45:51.548Z,98993.91
2023-04-04T01:48:18.042Z,98990.78
2023-04-04T01:50:44.344Z,98986.03
2023-04-04T01:53:10.641Z,98989.03
2023-04-04T01:55:37.010Z,98982.44
2023-04-04T01:58:03.356Z,98978.34
2023-04-04T02:00:29.756Z,98980.50
2023-04-04T02:02:56.251Z,98976.56
2023-04-04T02:05:22.731Z,98975.06
2023-04-04T02:07:49.147Z,98979.22
2023-04-04T02:10:15.550Z,98979.56
2023-04-04T02:12:41.919Z,98986.19
2023-04-04T02:15:08.258Z,98977.78
2023-04-04T02:17:34.715Z,98977.31
2023-04-04T02:20:01.218Z,98976.84
2023-04-04T02:22:27.570Z,98971.09
2023-04-04T02:24:57.050Z,98973.25
2023-04-04T02:27:23.524Z,98970.13
2023-04-04T02:29:49.922Z,98971.31
2023-04-04T02:32:18.223Z,98973.28
2023-04-04T02:34:44.534Z,98970.00
2023-04-04T02:37:10.988Z,98971.19
2023-04-04T02:39:37.488Z,98968.06
2023-04-04T02:42:06.884Z,98963.94
2023-04-04T02:44:33.243Z,98966.28
2023-04-04T02:46:59.696Z,98960.34
2023-04-04T02:49:26.097Z,98953.75
2023-04-04T02:51:52.760Z,98958.38
2023-04-04T02:54:19.164Z,98949.19
2023-04-04T02:56:45.489Z,98944.22
2023-04-04T02:59:11.821Z,98941.94
2023-04-04T03:01:38.184Z,98948.56
2023-04-04T03:04:04.674Z,98938.50
2023-04-04T03:06:30.999Z,98935.38
2023-04-04T03:08:58.270Z,98937.38
2023-04-04T03:11:24.502Z,98944.00
2023-04-04T03:13:50.937Z,98943.34
2023-04-04T03:16:17.301Z,98944.66
2023-04-04T03:18:43.698Z,98947.63
2023-04-04T03:21:10.174Z,98949.63
2023-04-04T03:23:36.640Z,98941.22
2023-04-04T03:26:02.997Z,98945.00
2023-04-04T03:28:29.393Z,98943.72
2023-04-04T03:31:01.701Z,98946.66
2023-04-04T03:33:28.083Z,98942.56
2023-04-04T03:35:54.417Z,98933.34
2023-04-04T03:38:21.055Z,98933.50
2023-04-04T03:40:47.420Z,98927.09
2023-04-04T03:43:13.804Z,98923.00
2023-04-04T03:45:40.176Z,98920.84
2023-04-04T03:48:06.610Z,98922.03
2023-04-04T03:50:32.952Z,98919.69
2023-04-04T03:52:59.405Z,98915.78
2023-04-04T03:55:25.706Z,98902.56
2023-04-04T03:57:55.132Z,98917.09
2023-04-04T04:00:21.622Z,98911.16
2023-04-04T04:02:49.322Z,98905.19
2023-04-04T04:05:15.742Z,98904.72
2023-04-04T04:07:42.167Z,98903.25
2023-04-04T04:10:08.462Z,98903.56
2023-04-04T04:12:34.862Z,98897.84
2023-04-04T04:15:01.246Z,98901.59
2023-04-04T04:17:27.486Z,98906.38
2023-04-04T04:19:53.764Z,98902.25
2023-04-04T04:22:20.051Z,98902.59
2023-04-04T04:24:46.320Z,98908.19
2023-04-04T04:27:12.822Z,98904.06
2023-04-04T04:29:39.210Z,98906.03
2023-04-04T04:32:05.505Z,98904.56
2023-04-04T04:34:31.945Z,98901.28
2023-04-04T04:36:58.270Z,98903.25
2023-04-04T04:39:25.790Z,98906.03
2023-04-04T04:41:52.146Z,98899.31
2023-04-04T04:44:18.457Z,98897.81
2023-04-04T04:46:44.782Z,98903.25
2023-04-04T04:49:11.276Z,98911.31
2023-04-04T04:51:37.605Z,98906.22
2023-04-04T04:54:03.937Z,98904.56
2023-04-04T04:56:30.260Z,98895.03
2023-04-04T04:58:56.664Z,98899.63
2023-04-04T05:01:23.134Z,98905.84
2023-04-04T05:03:52.152Z,98902.25
2023-04-04T05:06:19.755Z,98906.53
2023-04-04T05:08:46.032Z,98904.22
2023-04-04T05:11:12.284Z,98915.94
2023-04-04T05:13:38.653Z,98899.97
2023-04-04T05:16:04.964Z,98909.50
2023-04-04T05:18:31.619Z,98910.31
2023-04-04T05:20:58.066Z,98911.78
2023-04-04T05:23:24.398Z,98904.56
2023-04-04T05:25:50.699Z,98914.13
2023-04-04T05:28:17.167Z,98921.16
2023-04-04T05:30:43.628Z,98921.84
2023-04-04T05:33:10.227Z,98923.88
2023-04-04T05:35:36.718Z,98923.09
2023-04-04T05:38:03.288Z,98920.59
2023-04-04T05:40:29.684Z,98925.81
2023-04-04T05:42:58.230Z,98923.56
2023-04-04T05:45:26.596Z,98920.78
2023-04-04T05:47:53.070Z,98921.06
2023-04-04T05:50:19.358Z,98916.91
2023-04-04T05:52:45.700Z,98922.31
2023-04-04T05:55:12.145Z,98923.56
2023-04-04T05:57:38.688Z,98917.25
2023-04-04T06:00:05.111Z,98931.06
2023-04-04T06:02:31.550Z,98928.72
2023-04-04T06:04:57.861Z,98930.44
2023-04-04T06:07:24.293Z,98933.34
2023-04-04T06:09:54.426Z,98942.78
2023-04-04T06:12:21.132Z,98945.66
2023-04-04T06:14:47.365Z,98944.03
2023-04-04T06:17:13.738Z,98949.59
2023-04-04T06:19:41.387Z,98944.81
2023-04-04T06:22:07.684Z,98945.84
2023-04-04T06:24:36.113Z,98945.59
2023-04-04T06:27:03.287Z,98943.94
2023-04-04T06:29:29.661Z,98944.34
2023-04-04T06:31:56.130Z,98945.53
2023-04-04T06:34:22.539Z,98950.41
2023-04-04T06:36:49.005Z,98957.31
2023-04-04T06:39:15.500Z,98956.25
2023-04-04T06:41:42.329Z,98960.94
2023-04-04T06:44:08.669Z,98954.50
2023-04-04T06:46:36.365Z,98953.63
2023-04-04T06:49:03.042Z,98951.88
2023-04-04T06:51:29.766Z,98953.88
2023-04-04T06:53:56.373Z,98952.59
2023-04-04T06:56:23.346Z,98960.25
2023-04-04T06:58:49.845Z,98968.63
2023-04-04T07:01:16.390Z,98960.34
2023-04-04T07:03:43.230Z,98968.44
2023-04-04T07:06:09.653Z,98963.06
2023-04-04T07:08:53.978Z,98965.88
2023-04-04T07:11:24.173Z,98977.41
2023-04-04T07:13:50.669Z,98976.28
2023-04-04T07:16:17.133Z,98973.44
2023-04-04T07:18:45.497Z,98980.25
2023-04-04T07:21:12.206Z,98978.31
2023-04-04T07:23:38.757Z,98974.41
2023-04-04T07:26:05.131Z,98969.03
2023-04-04T07:28:31.655Z,98975.34
2023-04-04T07:31:03.098Z,98974.72
2023-04-04T07:33:29.508Z,98976.94
2023-04-04T07:36:00.380Z,98981.63
2023-04-04T07:38:28.061Z,98969.88
2023-04-04T07:40:54.610Z,98977.47
2023-04-04T07:43:20.938Z,98972.91
2023-04-04T07:45:48.902Z,98970.59
2023-04-04T07:48:15.376Z,98972.31
2023-04-04T07:50:43.123Z,98967.25
2023-04-04T07:53:19.851Z,98961.16
2023-04-04T07:55:46.424Z,98951.34
2023-04-04T07:58:17.198Z,98947.56
2023-04-04T08:00:47.022Z,98931.75
2023-04-04T08:03:22.097Z,98934.00
2023-04-04T08:05:50.177Z,98930.50
2023-04-04T08:08:16.563Z,98928.50
2023-04-04T08:10:44.168Z,98930.44
2023-04-04T08:13:13.530Z,98927.91
2023-04-04T08:15:45.704Z,98935.06
2023-04-04T08:18:16.561Z,98925.84
2023-04-04T08:20:50.789Z,98929.78
2023-04-04T08:23:17.245Z,98918.50
2023-04-04T08:25:48.232Z,98914.03
2023-04-04T08:28:14.665Z,98928.19
2023-04-04T08:30:41.622Z,98921.78
2023-04-04T08:33:08.268Z,98930.34
2023-04-04T08:35:40.308Z,98924.44
2023-04-04T08:38:08.015Z,98918.50
2023-04-04T08:40:34.972Z,98923.06
2023-04-04T08:43:01.505Z,98910.09
2023-04-04T08:45:28.350Z,98914.09
2023-04-04T08:47:54.744Z,98909.25
2023-04-04T08:50:21.269Z,98905.16
2023-04-04T08:52:47.806Z,98893.63
2023-04-04T08:55:18.637Z,98904.69
2023-04-04T08:57:45.076Z,98909.53
2023-04-04T09:00:11.773Z,98910.72
2023-04-04T09:02:39.506Z,98916.63
2023-04-04T09:05:10.860Z,98915.25
2023-04-04T09:07:39.111Z,98917.59
2023-04-04T09:10:06.255Z,98917.63
2023-04-04T09:12:34.739Z,98919.88
2023-04-04T09:15:01.223Z,98915.59
2023-04-04T09:17:28.002Z,98916.88
2023-04-04T09:19:54.614Z,98914.91
2023-04-04T09:22:23.594Z,98919.59
2023-04-04T09:24:50.017Z,98919.22
2023-04-04T09:27:17.717Z,98914.13
2023-04-04T09:29:44.245Z,98919.09
2023-04-04T09:32:10.898Z,98923.19
2023-04-04T09:34:37.474Z,98920.72
2023-04-04T09:37:04.088Z,98912.13
2023-04-04T09:39:30.846Z,98919.91
2023-04-04T09:41:58.451Z,98924.13
2023-04-04T09:44:24.882Z,98914.78
2023-04-04T09:46:51.980Z,98909.31
2023-04-04T09:49:18.393Z,98910.84
2023-04-04T09:51:45.010Z,98912.00
2023-04-04T09:54:18.786Z,98906.97
2023-04-04T09:56:54.138Z,98904.09
2023-04-04T09:59:31.796Z,98916.53
2023-04-04T10:01:58.486Z,98911.19
2023-04-04T10:04:25.464Z,98899.78
2023-04-04T10:06:53.741Z,98905.72
2023-04-04T10:09:22.212Z,98899.06
2023-04-04T10:11:49.006Z,98900.72
2023-04-04T10:14:17.996Z,98907.69
2023-04-04T10:16:47.358Z,98906.44
2023-04-04T10:19:16.363Z,98905.13
2023-04-04T10:21:49.976Z,98898.72
2023-04-04T10:24:16.422Z,98890.69
2023-04-04T10:26:42.896Z,98895.00
2023-04-04T10:29:09.313Z,98891.97
2023-04-04T10:31:35.852Z,98893.97
2023-04-04T10:34:07.303Z,98889.78
2023-04-04T10:36:33.706Z,98884.72
2023-04-04T10:39:00.649Z,98883.41
2023-04-04T10:41:27.167Z,98884.53
2023-04-04T10:43:53.707Z,98882.63
2023-04-04T10:46:23.894Z,98877.63
2023-04-04T10:48:50.419Z,98883.50
2023-04-04T10:51:16.910Z,98883.47
2023-04-04T10:53:43.637Z,98880.69
2023-04-04T10:56:11.487Z,98877.50
2023-04-04T10:58:37.940Z,98879.91
2023-04-04T11:01:04.451Z,98873.00
2023-04-04T11:03:32.203Z,98862.41
2023-04-04T11:05:58.678Z,98861.44
2023-04-04T11:08:25.290Z,98859.44
2023-04-04T11:10:52.956Z,98859.84
2023-04-04T11:13:19.509Z,98853.34
2023-04-04T11:15:45.923Z,98844.75
2023-04-04T11:18:30.065Z,98845.78
2023-04-04T11:21:10.657Z,98846.00
2023-04-04T11:23:37.124Z,98832.28
2023-04-04T11:26:10.679Z,98844.69
2023-04-04T11:28:38.858Z,98841.25
2023-04-04T11:31:09.821Z,98835.78
2023-04-04T11:33:40.046Z,98848.22
2023-04-04T11:36:08.602Z,98841.47
2023-04-04T11:38:35.417Z,98830.88
2023-04-04T11:41:01.999Z,98836.94
2023-04-04T11:46:20.407Z,98835.41
2023-04-04T11:48:46.829Z,98826.22
2023-04-04T11:51:20.863Z,98824.19
2023-04-04T11:53:51.246Z,98821.53
2023-04-04T11:56:17.925Z,98819.84
2023-04-04T11:58:52.015Z,98821.81
2023-04-04T12:01:24.142Z,98819.69
2023-04-04T12:03:50.766Z,98818.81
2023-04-04T12:06:17.305Z,98815.09
2023-04-04T12:08:49.561Z,98809.56
2023-04-04T12:11:21.027Z,98811.41
2023-04-04T12:13:47.493Z,98819.44
2023-04-04T12:16:14.315Z,98807.09
2023-04-04T12:18:40.863Z,98803.09
2023-04-04T12:21:07.285Z,98796.78
2023-04-04T12:23:35.750Z,98794.75
2023-04-04T12:26:02.358Z,98794.91
2023-04-04T12:28:30.048Z,98786.75
2023-04-04T12:30:56.872Z,98787.81
2023-04-04T12:33:23.456Z,98786.97
2023-04-04T12:35:50.000Z,98779.69
2023-04-04T12:38:20.820Z,98778.53
2023-04-04T12:40:49.352Z,98771.00
2023-04-04T12:43:15.896Z,98766.56
2023-04-04T12:45:42.422Z,98769.53
2023-04-04T12:48:09.002Z,98760.22
2023-04-04T12:50:35.404Z,98753.75
2023-04-04T12:53:18.742Z,98756.13
2023-04-04T12:55:52.479Z,98759.31
2023-04-04T12:58:18.879Z,98755.16
2023-04-04T13:00:45.282Z,98746.91
2023-04-04T13:03:11.822Z,98745.63
2023-04-04T13:05:38.289Z,98733.69
2023-04-04T13:08:05.163Z,98745.75
2023-04-04T13:10:31.598Z,98738.34
2023-04-04T13:12:58.124Z,98732.78
2023-04-04T13:15:24.597Z,98731.53
2023-04-04T13:17:53.156Z,98723.28
2023-04-04T13:20:21.808Z,98716.19
2023-04-04T13:22:49.665Z,98724.22
2023-04-04T13:25:16.005Z,98723.78
2023-04-04T13:27:42.471Z,98716.56
2023-04-04T13:30:10.131Z,98712.06
2023-04-04T13:32:37.776Z,98707.31
2023-04-04T13:35:04.154Z,98702.53
2023-04-04T13:37:30.541Z,98702.31
2023-04-04T13:39:57.122Z,98697.53
2023-04-04T13:42:23.541Z,98697.53
2023-04-04T13:44:50.001Z,98686.63
2023-04-04T13:47:16.464Z,98689.09
2023-04-04T13:49:42.820Z,98693.38
2023-04-04T13:52:09.073Z,98685.34
2023-04-04T13:54:35.464Z,98684.09
2023-04-04T13:57:04.829Z,98690.00
2023-04-04T13:59:31.573Z,98676.66
2023-04-04T14:01:58.325Z,98676.44
2023-04-04T14:04:24.902Z,98674.56
2023-04-04T14:06:51.375Z,98677.81
2023-04-04T14:09:17.854Z,98660.25
2023-04-04T14:11:44.212Z,98677.59
2023-04-04T14:14:10.539Z,98681.09
2023-04-04T14:16:36.913Z,98665.06
2023-04-04T14:19:03.198Z,98668.56
2023-04-04T14:21:29.433Z,98675.50
2023-04-04T14:23:55.742Z,98664.59
2023-04-04T14:26:22.121Z,98660.88
2023-04-04T14:28:48.704Z,98661.91
2023-04-04T14:31:15.331Z,98664.00
2023-04-04T14:33:41.839Z,98657.28
2023-04-04T14:36:09.725Z,98659.13
2023-04-04T14:38:36.122Z,98655.84
2023-04-04T14:41:03.482Z,98656.31
2023-04-04T14:43:32.169Z,98661.91
2023-04-04T14:45:58.981Z,98662.72
2023-04-04T14:48:25.619Z,98652.03
2023-04-04T14:50:52.043Z,98647.72
2023-04-04T14:53:18.359Z,98652.25
2023-04-04T14:55:44.973Z,98648.19
2023-04-04T14:58:13.443Z,98652.72
2023-04-04T15:00:39.961Z,98649.22
2023-04-04T15:03:07.350Z,98637.97
2023-04-04T15:05:33.855Z,98639.81
2023-04-04T15:08:01.298Z,98640.06
2023-04-04T15:10:27.548Z,98633.88
2023-04-04T15:12:53.835Z,98627.72
2023-04-04T15:15:22.188Z,98627.16
2023-04-04T15:17:49.460Z,98629.25
2023-04-04T15:20:15.872Z,98624.16
2023-04-04T15:22:42.230Z,98624.34
2023-04-04T15:25:08.634Z,98622.16
2023-04-04T15:27:36.226Z,98626.66
2023-04-04T15:30:02.619Z,98631.44
2023-04-04T15:32:31.161Z,98625.50
2023-04-04T15:34:57.535Z,98620.97
2023-04-04T15:37:23.931Z,98619.34
2023-04-04T15:39:53.438Z,98627.34
2023-04-04T15:42:20.449Z,98611.81
2023-04-04T15:44:46.821Z,98614.91
2023-04-04T15:47:13.362Z,98610.63
2023-04-04T15:49:39.693Z,98604.69
2023-04-04T15:52:06.033Z,98605.16
2023-04-04T15:54:32.330Z,98611.75
2023-04-04T15:56:58.692Z,98609.31
2023-04-04T15:59:27.814Z,98606.06
2023-04-04T16:01:55.744Z,98594.81
2023-04-04T16:04:22.423Z,98603.84
2023-04-04T16:06:48.793Z,98603.28
2023-04-04T16:09:15.190Z,98607.81
2023-04-04T16:11:41.553Z,98600.00
2023-04-04T16:14:07.958Z,98603.72
2023-04-04T16:16:38.610Z,98596.19
2023-04-04T16:19:04.989Z,98600.94
2023-04-04T16:21:35.412Z,98596.84
2023-04-04T16:24:01.805Z,98596.50
2023-04-04T16:26:28.162Z,98587.91
2023-04-04T16:28:54.453Z,98590.00
2023-04-04T16:31:20.771Z,98591.03
2023-04-04T16:33:47.130Z,98589.66
2023-04-04T16:36:13.557Z,98595.22
2023-04-04T16:38:39.908Z,98598.91
2023-04-04T16:41:06.253Z,98598.28
2023-04-04T16:43:34.874Z,98592.34
2023-04-04T16:46:01.283Z,98586.44
2023-04-04T16:48:27.703Z,98587.72
2023-04-04T16:50:54.124Z,98584.44
2023-04-04T16:53:20.543Z,98583.06
2023-04-04T16:55:47.094Z,98586.97
2023-04-04T16:58:13.512Z,98587.44
2023-04-04T17:00:40.110Z,98590.34
2023-04-04T17:03:06.915Z,98579.06
2023-04-04T17:05:34.406Z,98585.66
2023-04-04T17:08:00.949Z,98585.31
2023-04-04T17:10:27.483Z,98578.59
2023-04-04T17:12:56.999Z,98577.16
2023-04-04T17:15:23.305Z,98578.44
2023-04-04T17:17:49.694Z,98582.38
2023-04-04T17:20:16.213Z,98579.91
2023-04-04T17:22:42.540Z,98576.66
2023-04-04T17:25:08.922Z,98583.25
2023-04-04T17:27:35.327Z,98573.03
2023-04-04T17:30:06.060Z,98569.78
2023-04-04T17:32:32.835Z,98575.56
2023-04-04T17:35:00.574Z,98585.63
2023-04-04T17:37:27.448Z,98584.03
2023-04-04T17:39:54.160Z,98574.84
2023-04-04T17:42:20.564Z,98571.56
2023-04-04T17:44:47.027Z,98569.34
2023-04-04T17:47:13.388Z,98575.75
2023-04-04T17:49:39.775Z,98576.16
2023-04-04T17:52:06.515Z,98580.91
2023-04-04T17:54:33.107Z,98580.53
2023-04-04T17:56:59.569Z,98575.44
2023-04-04T17:59:25.876Z,98567.66
2023-04-04T18:01:52.361Z,98567.88
2023-04-04T18:04:18.657Z,98572.63
2023-04-04T18:06:44.947Z,98572.03
2023-04-04T18:09:11.377Z,98576.75
2023-04-04T18:11:37.728Z,98576.97
2023-04-04T18:14:04.102Z,98583.34
2023-04-04T18:16:30.615Z,98577.19
2023-04-04T18:18:57.045Z,98575.59
2023-04-04T18:21:23.347Z,98585.66
2023-04-04T18:23:49.657Z,98587.72
2023-04-04T18:26:15.893Z,98581.00
2023-04-04T18:28:42.402Z,98581.38
2023-04-04T18:31:09.191Z,98586.72
2023-04-04T18:33:35.609Z,98587.53
2023-04-04T18:36:02.060Z,98592.28
2023-04-04T18:38:28.382Z,98589.00
2023-04-04T18:40:54.754Z,98587.63
2023-04-04T18:43:21.173Z,98591.28
2023-04-04T18:45:47.568Z,98593.34
2023-04-04T18:48:13.928Z,98590.13
2023-04-04T18:50:40.544Z,98596.69
2023-04-04T18:53:07.281Z,98593.44
2023-04-04T18:55:33.584Z,98596.31
2023-04-04T18:57:59.921Z,98594.94
2023-04-04T19:00:26.404Z,98593.50
2023-04-04T19:02:52.898Z,98590.22
2023-04-04T19:05:19.327Z,98599.50
2023-04-04T19:07:47.621Z,98592.75
2023-04-04T19:10:13.972Z,98604.22
2023-04-04T19:12:40.510Z,98597.47
2023-04-04T19:15:07.034Z,98601.19
2023-04-04T19:17:35.385Z,98594.44
2023-04-04T19:20:01.673Z,98599.16
2023-04-04T19:22:27.940Z,98597.53
2023-04-04T19:24:55.654Z,98601.44
2023-04-04T19:27:22.049Z,98599.81
2023-04-04T19:29:48.400Z,98600.03
2023-04-04T19:32:16.127Z,98601.28
2023-04-04T19:34:42.606Z,98597.00
2023-04-04T19:37:08.984Z,98604.16
2023-04-04T19:39:36.022Z,98594.75
2023-04-04T19:42:02.608Z,98593.13
2023-04-04T19:44:28.909Z,98594.19
2023-04-04T19:46:55.280Z,98599.72
2023-04-04T19:49:21.786Z,98605.03
2023-04-04T19:51:48.126Z,98605.03
2023-04-04T19:54:14.549Z,98599.13
2023-04-04T19:56:40.782Z,98597.47
2023-04-04T19:59:10.540Z,98595.84
2023-04-04T20:01:40.566Z,98595.84
2023-04-04T20:04:11.137Z,98599.53
2023-04-04T20:06:37.473Z,98596.31
2023-04-04T20:09:03.870Z,98593.63
2023-04-04T20:11:30.229Z,98588.50
2023-04-04T20:13:56.710Z,98593.03
2023-04-04T20:16:23.290Z,98591.38
2023-04-04T20:18:49.653Z,98595.09
2023-04-04T20:21:16.217Z,98586.50
2023-04-04T20:23:42.754Z,98589.16
2023-04-04T20:26:09.412Z,98587.53
2023-04-04T20:28:36.235Z,98595.72
2023-04-04T20:31:02.670Z,98585.28
2023-04-04T20:33:29.130Z,98589.81
2023-04-04T20:35:55.471Z,98589.00
2023-04-04T20:38:21.740Z,98591.88
2023-04-04T20:40:48.241Z,98588.41
2023-04-04T20:43:14.788Z,98594.16
2023-04-04T20:45:45.606Z,98598.44
2023-04-04T20:48:12.490Z,98587.19
2023-04-04T20:50:39.092Z,98590.91
2023-04-04T20:53:05.519Z,98598.06
2023-04-04T20:55:31.745Z,98591.13
2023-04-04T20:57:58.105Z,98595.63
2023-04-04T21:00:24.502Z,98586.00
2023-04-04T21:02:50.892Z,98593.16
2023-04-04T21:05:17.510Z,98597.66
2023-04-04T21:07:43.826Z,98589.91
2023-04-04T21:10:10.323Z,98589.31
2023-04-04T21:12:36.810Z,98594.63
2023-04-04T21:15:03.127Z,98591.97
2023-04-04T21:17:29.482Z,98597.50
2023-04-04T21:19:58.886Z,98588.53
2023-04-04T21:22:27.655Z,98593.25
2023-04-04T21:24:54.033Z,98592.09
2023-04-04T21:27:20.402Z,98584.81
2023-04-04T21:29:46.829Z,98588.13
2023-04-04T21:32:13.206Z,98591.06
2023-04-04T21:34:39.796Z,98591.47
2023-04-04T21:37:06.161Z,98589.88
2023-04-04T21:39:32.592Z,98592.56
2023-04-04T21:41:59.197Z,98585.63
2023-04-04T21:44:25.661Z,98579.53
2023-04-04T21:46:51.902Z,98583.03
2023-04-04T21:49:18.614Z,98585.72
2023-04-04T21:51:44.920Z,98581.22
2023-04-04T21:54:12.721Z,98589.00
2023-04-04T21:56:41.041Z,98581.81
2023-04-04T21:59:07.436Z,98577.34
2023-04-04T22:01:33.926Z,98577.16
2023-04-04T22:04:00.252Z,98583.06
2023-04-04T22:06:26.623Z,98579.41
2023-04-04T22:08:53.063Z,98576.56
2023-04-04T22:11:19.487Z,98573.69
2023-04-04T22:13:45.759Z,98571.06
2023-04-04T22:16:12.085Z,98570.84
2023-04-04T22:18:38.426Z,98572.50
2023-04-04T22:21:04.981Z,98567.81
2023-04-04T22:23:31.484Z,98565.75
2023-04-04T22:25:57.891Z,98563.94
2023-04-04T22:28:24.465Z,98558.44
2023-04-04T22:30:50.890Z,98569.63
2023-04-04T22:33:17.321Z,98572.91
2023-04-04T22:35:43.708Z,98570.03
2023-04-04T22:38:10.170Z,98569.63
2023-04-04T22:40:37.798Z,98572.88
2023-04-04T22:43:04.746Z,98572.66
2023-04-04T22:45:31.080Z,98572.44
2023-04-04T22:47:57.420Z,98571.22
2023-04-04T22:50:23.740Z,98575.31
2023-04-04T22:52:50.671Z,98580.16
2023-04-04T22:55:17.096Z,98580.75
2023-04-04T22:57:45.585Z,98575.22
2023-04-04T23:00:11.936Z,98563.38
2023-04-04T23:02:38.384Z,98567.47
2023-04-04T23:05:04.719Z,98566.22
2023-04-04T23:07:31.280Z,98563.16
2023-04-04T23:09:57.493Z,98563.75
2023-04-04T23:12:23.892Z,98555.41
2023-04-04T23:14:50.240Z,98555.97
2023-04-04T23:17:16.592Z,98553.09
2023-04-04T23:19:42.917Z,98551.84
2023-04-04T23:22:09.495Z,98559.38
2023-04-04T23:24:35.895Z,98546.75
2023-04-04T23:27:02.509Z,98549.81
2023-04-04T23:29:31.862Z,98552.81
2023-04-04T23:31:58.273Z,98546.31
2023-04-04T23:34:24.645Z,98544.06
2023-04-04T23:36:51.165Z,98550.75
2023-04-04T23:39:17.436Z,98546.84
2023-04-04T23:41:43.905Z,98550.91
2023-04-04T23:44:10.460Z,98544.38
2023-04-04T23:46:36.829Z,98547.59
2023-04-04T23:51:54.623Z,98535.56
2023-04-04T23:54:21.183Z,98530.84
2023-04-04T23:56:47.464Z,98530.41
2023-04-04T23:59:13.741Z,98532.00
